sensor_id;sensor_type;location;lat;lon;timestamp;temperature;humidity
16441;DHT22;8330;-33.858;151.184;2022-11-18T00:01:06;21.50;99.90
16441;DHT22;8330;-33.858;151.184;2022-11-18T00:03:39;21.40;99.90
16441;DHT22;8330;-33.858;151.184;2022-11-18T00:06:13;21.50;99.90
16441;DHT22;8330;-33.858;151.184;2022-11-18T00:08:44;21.70;99.90
16441;DHT22;8330;-33.858;151.184;2022-11-18T00:11:16;21.80;99.90
16441;DHT22;8330;-33.858;151.184;2022-11-18T00:14:00;21.90;99.90
16441;DHT22;8330;-33.858;151.184;2022-11-18T00:16:51;21.80;99.90
16441;DHT22;8330;-33.858;151.184;2022-11-18T00:19:26;21.90;99.90
16441;DHT22;8330;-33.858;151.184;2022-11-18T00:21:57;22.10;99.90
16441;DHT22;8330;-33.858;151.184;2022-11-18T00:24:31;22.20;99.90
16441;DHT22;8330;-33.858;151.184;2022-11-18T00:27:02;22.10;99.90
16441;DHT22;8330;-33.858;151.184;2022-11-18T00:29:33;22.20;99.90
16441;DHT22;8330;-33.858;151.184;2022-11-18T00:32:04;22.30;99.90
16441;DHT22;8330;-33.858;151.184;2022-11-18T00:34:37;22.20;99.90
16441;DHT22;8330;-33.858;151.184;2022-11-18T00:37:09;22.20;99.90
16441;DHT22;8330;-33.858;151.184;2022-11-18T00:39:40;22.20;99.90
16441;DHT22;8330;-33.858;151.184;2022-11-18T00:42:11;22.20;99.90
16441;DHT22;8330;-33.858;151.184;2022-11-18T00:44:57;22.10;99.90
16441;DHT22;8330;-33.858;151.184;2022-11-18T00:47:28;22.20;99.90
16441;DHT22;8330;-33.858;151.184;2022-11-18T00:50:00;22.30;99.90
16441;DHT22;8330;-33.858;151.184;2022-11-18T00:52:31;22.40;99.40
16441;DHT22;8330;-33.858;151.184;2022-11-18T00:55:02;22.40;99.40
16441;DHT22;8330;-33.858;151.184;2022-11-18T00:57:33;22.50;96.90
16441;DHT22;8330;-33.858;151.184;2022-11-18T01:00:04;22.50;98.10
16441;DHT22;8330;-33.858;151.184;2022-11-18T01:02:36;22.30;99.90
16441;DHT22;8330;-33.858;151.184;2022-11-18T01:05:08;22.40;99.90
16441;DHT22;8330;-33.858;151.184;2022-11-18T01:07:39;22.40;99.90
16441;DHT22;8330;-33.858;151.184;2022-11-18T01:10:10;22.40;99.90
16441;DHT22;8330;-33.858;151.184;2022-11-18T01:12:41;22.40;99.90
16441;DHT22;8330;-33.858;151.184;2022-11-18T01:15:28;22.40;99.90
16441;DHT22;8330;-33.858;151.184;2022-11-18T01:17:58;22.50;99.90
16441;DHT22;8330;-33.858;151.184;2022-11-18T01:20:32;22.40;99.90
16441;DHT22;8330;-33.858;151.184;2022-11-18T01:23:04;22.50;99.90
16441;DHT22;8330;-33.858;151.184;2022-11-18T01:25:36;22.50;99.90
16441;DHT22;8330;-33.858;151.184;2022-11-18T01:28:07;22.60;99.90
16441;DHT22;8330;-33.858;151.184;2022-11-18T01:30:39;22.70;99.90
16441;DHT22;8330;-33.858;151.184;2022-11-18T01:33:10;22.80;99.90
16441;DHT22;8330;-33.858;151.184;2022-11-18T01:35:44;22.90;99.70
16441;DHT22;8330;-33.858;151.184;2022-11-18T01:38:15;23.00;99.70
16441;DHT22;8330;-33.858;151.184;2022-11-18T01:40:46;23.00;96.90
16441;DHT22;8330;-33.858;151.184;2022-11-18T01:43:18;23.00;96.80
16441;DHT22;8330;-33.858;151.184;2022-11-18T01:45:51;23.10;96.30
16441;DHT22;8330;-33.858;151.184;2022-11-18T01:48:24;22.80;96.30
16441;DHT22;8330;-33.858;151.184;2022-11-18T01:51:01;22.80;97.50
16441;DHT22;8330;-33.858;151.184;2022-11-18T01:53:36;22.90;97.70
16441;DHT22;8330;-33.858;151.184;2022-11-18T01:56:11;23.00;94.60
16441;DHT22;8330;-33.858;151.184;2022-11-18T01:58:47;23.00;93.90
16441;DHT22;8330;-33.858;151.184;2022-11-18T02:01:20;23.10;93.40
16441;DHT22;8330;-33.858;151.184;2022-11-18T02:03:52;23.10;92.20
16441;DHT22;8330;-33.858;151.184;2022-11-18T02:06:25;23.00;92.00
16441;DHT22;8330;-33.858;151.184;2022-11-18T02:08:56;23.00;93.20
16441;DHT22;8330;-33.858;151.184;2022-11-18T02:11:27;22.90;93.20
16441;DHT22;8330;-33.858;151.184;2022-11-18T02:14:13;23.00;93.20
16441;DHT22;8330;-33.858;151.184;2022-11-18T02:17:00;23.10;92.30
16441;DHT22;8330;-33.858;151.184;2022-11-18T02:19:47;23.00;92.40
16441;DHT22;8330;-33.858;151.184;2022-11-18T02:22:40;23.10;92.30
16441;DHT22;8330;-33.858;151.184;2022-11-18T02:25:20;23.40;91.60
16441;DHT22;8330;-33.858;151.184;2022-11-18T02:28:24;23.40;92.50
16441;DHT22;8330;-33.858;151.184;2022-11-18T02:31:09;23.60;92.60
16441;DHT22;8330;-33.858;151.184;2022-11-18T02:33:50;23.70;92.40
16441;DHT22;8330;-33.858;151.184;2022-11-18T02:36:30;23.50;92.70
16441;DHT22;8330;-33.858;151.184;2022-11-18T02:39:06;23.50;93.90
16441;DHT22;8330;-33.858;151.184;2022-11-18T02:41:39;23.50;94.50
16441;DHT22;8330;-33.858;151.184;2022-11-18T02:44:15;23.50;92.80
16441;DHT22;8330;-33.858;151.184;2022-11-18T02:46:54;23.70;95.90
16441;DHT22;8330;-33.858;151.184;2022-11-18T02:49:30;23.80;94.50
16441;DHT22;8330;-33.858;151.184;2022-11-18T02:52:04;23.90;93.40
16441;DHT22;8330;-33.858;151.184;2022-11-18T02:54:37;24.00;95.20
16441;DHT22;8330;-33.858;151.184;2022-11-18T02:57:09;24.10;94.90
16441;DHT22;8330;-33.858;151.184;2022-11-18T02:59:40;24.20;94.60
16441;DHT22;8330;-33.858;151.184;2022-11-18T03:02:16;24.20;95.60
16441;DHT22;8330;-33.858;151.184;2022-11-18T03:04:48;24.30;95.60
16441;DHT22;8330;-33.858;151.184;2022-11-18T03:07:24;24.40;94.30
16441;DHT22;8330;-33.858;151.184;2022-11-18T03:09:57;24.30;94.60
16441;DHT22;8330;-33.858;151.184;2022-11-18T03:12:34;24.40;93.00
16441;DHT22;8330;-33.858;151.184;2022-11-18T03:15:17;24.30;93.20
16441;DHT22;8330;-33.858;151.184;2022-11-18T03:17:59;24.10;92.30
16441;DHT22;8330;-33.858;151.184;2022-11-18T03:20:33;24.20;91.70
16441;DHT22;8330;-33.858;151.184;2022-11-18T03:23:10;24.20;92.80
16441;DHT22;8330;-33.858;151.184;2022-11-18T03:25:46;24.50;92.90
16441;DHT22;8330;-33.858;151.184;2022-11-18T03:28:22;24.70;92.90
16441;DHT22;8330;-33.858;151.184;2022-11-18T03:30:57;24.50;93.20
16441;DHT22;8330;-33.858;151.184;2022-11-18T03:33:34;24.60;92.80
16441;DHT22;8330;-33.858;151.184;2022-11-18T03:36:07;24.70;93.20
16441;DHT22;8330;-33.858;151.184;2022-11-18T03:38:44;24.80;93.90
16441;DHT22;8330;-33.858;151.184;2022-11-18T03:41:17;24.80;93.00
16441;DHT22;8330;-33.858;151.184;2022-11-18T03:43:53;24.40;93.30
16441;DHT22;8330;-33.858;151.184;2022-11-18T03:46:30;24.00;94.40
16441;DHT22;8330;-33.858;151.184;2022-11-18T03:49:07;24.10;95.90
16441;DHT22;8330;-33.858;151.184;2022-11-18T03:51:43;24.20;95.40
16441;DHT22;8330;-33.858;151.184;2022-11-18T03:54:19;24.30;94.80
16441;DHT22;8330;-33.858;151.184;2022-11-18T03:56:56;24.50;93.60
16441;DHT22;8330;-33.858;151.184;2022-11-18T03:59:34;24.50;93.90
16441;DHT22;8330;-33.858;151.184;2022-11-18T04:02:08;24.60;94.40
16441;DHT22;8330;-33.858;151.184;2022-11-18T04:04:44;24.70;93.80
16441;DHT22;8330;-33.858;151.184;2022-11-18T04:07:21;24.70;94.10
16441;DHT22;8330;-33.858;151.184;2022-11-18T04:09:56;24.80;94.70
16441;DHT22;8330;-33.858;151.184;2022-11-18T04:12:30;24.80;95.00
16441;DHT22;8330;-33.858;151.184;2022-11-18T04:15:02;24.70;93.50
16441;DHT22;8330;-33.858;151.184;2022-11-18T04:17:33;24.50;93.80
16441;DHT22;8330;-33.858;151.184;2022-11-18T04:20:12;24.30;94.10
16441;DHT22;8330;-33.858;151.184;2022-11-18T04:22:43;24.30;94.80
16441;DHT22;8330;-33.858;151.184;2022-11-18T04:25:15;24.40;94.10
16441;DHT22;8330;-33.858;151.184;2022-11-18T04:27:46;24.40;95.30
16441;DHT22;8330;-33.858;151.184;2022-11-18T04:30:24;24.70;94.00
16441;DHT22;8330;-33.858;151.184;2022-11-18T04:32:55;24.90;93.40
16441;DHT22;8330;-33.858;151.184;2022-11-18T04:35:28;25.00;92.80
16441;DHT22;8330;-33.858;151.184;2022-11-18T04:37:59;25.20;92.40
16441;DHT22;8330;-33.858;151.184;2022-11-18T04:40:30;25.40;91.10
16441;DHT22;8330;-33.858;151.184;2022-11-18T04:43:01;25.40;91.00
16441;DHT22;8330;-33.858;151.184;2022-11-18T04:45:33;25.40;92.60
16441;DHT22;8330;-33.858;151.184;2022-11-18T04:48:04;25.40;92.90
16441;DHT22;8330;-33.858;151.184;2022-11-18T04:50:37;25.40;93.50
16441;DHT22;8330;-33.858;151.184;2022-11-18T04:53:08;25.50;93.70
16441;DHT22;8330;-33.858;151.184;2022-11-18T04:55:39;25.40;93.70
16441;DHT22;8330;-33.858;151.184;2022-11-18T04:58:10;25.60;93.20
16441;DHT22;8330;-33.858;151.184;2022-11-18T05:00:41;25.90;91.10
16441;DHT22;8330;-33.858;151.184;2022-11-18T05:03:12;25.80;90.70
16441;DHT22;8330;-33.858;151.184;2022-11-18T05:05:46;25.90;91.10
16441;DHT22;8330;-33.858;151.184;2022-11-18T05:08:18;25.90;90.80
16441;DHT22;8330;-33.858;151.184;2022-11-18T05:10:50;25.90;90.30
16441;DHT22;8330;-33.858;151.184;2022-11-18T05:13:40;25.80;89.20
16441;DHT22;8330;-33.858;151.184;2022-11-18T05:16:10;26.10;90.70
16441;DHT22;8330;-33.858;151.184;2022-11-18T05:18:41;26.10;88.60
16441;DHT22;8330;-33.858;151.184;2022-11-18T05:21:13;26.30;86.10
16441;DHT22;8330;-33.858;151.184;2022-11-18T05:23:44;26.40;88.10
16441;DHT22;8330;-33.858;151.184;2022-11-18T05:26:15;26.50;89.60
16441;DHT22;8330;-33.858;151.184;2022-11-18T05:28:46;26.70;84.80
16441;DHT22;8330;-33.858;151.184;2022-11-18T05:31:17;26.80;86.00
16441;DHT22;8330;-33.858;151.184;2022-11-18T05:33:47;27.00;85.20
16441;DHT22;8330;-33.858;151.184;2022-11-18T05:36:21;27.00;86.00
16441;DHT22;8330;-33.858;151.184;2022-11-18T05:38:52;27.30;87.10
16441;DHT22;8330;-33.858;151.184;2022-11-18T05:41:24;27.40;85.60
16441;DHT22;8330;-33.858;151.184;2022-11-18T05:44:10;28.00;82.40
16441;DHT22;8330;-33.858;151.184;2022-11-18T05:46:41;28.10;77.00
16441;DHT22;8330;-33.858;151.184;2022-11-18T05:49:12;28.20;73.20
16441;DHT22;8330;-33.858;151.184;2022-11-18T05:51:45;28.40;72.50
16441;DHT22;8330;-33.858;151.184;2022-11-18T05:54:16;28.70;72.30
16441;DHT22;8330;-33.858;151.184;2022-11-18T05:56:48;28.50;68.60
16441;DHT22;8330;-33.858;151.184;2022-11-18T05:59:19;28.50;66.70
16441;DHT22;8330;-33.858;151.184;2022-11-18T06:01:52;28.40;69.10
16441;DHT22;8330;-33.858;151.184;2022-11-18T06:04:27;28.30;69.50
16441;DHT22;8330;-33.858;151.184;2022-11-18T06:07:05;28.10;71.50
16441;DHT22;8330;-33.858;151.184;2022-11-18T06:09:39;28.10;71.70
16441;DHT22;8330;-33.858;151.184;2022-11-18T06:12:14;28.20;71.00
16441;DHT22;8330;-33.858;151.184;2022-11-18T06:14:49;28.30;70.60
16441;DHT22;8330;-33.858;151.184;2022-11-18T06:17:25;28.30;70.80
16441;DHT22;8330;-33.858;151.184;2022-11-18T06:19:58;28.20;70.70
16441;DHT22;8330;-33.858;151.184;2022-11-18T06:22:31;28.30;72.10
16441;DHT22;8330;-33.858;151.184;2022-11-18T06:25:03;28.30;71.40
16441;DHT22;8330;-33.858;151.184;2022-11-18T06:27:34;28.20;70.00
16441;DHT22;8330;-33.858;151.184;2022-11-18T06:30:06;27.90;73.60
16441;DHT22;8330;-33.858;151.184;2022-11-18T06:32:37;28.20;73.70
16441;DHT22;8330;-33.858;151.184;2022-11-18T06:35:08;28.40;73.90
16441;DHT22;8330;-33.858;151.184;2022-11-18T06:37:42;28.00;74.50
16441;DHT22;8330;-33.858;151.184;2022-11-18T06:40:14;28.40;73.50
16441;DHT22;8330;-33.858;151.184;2022-11-18T06:42:45;28.80;71.50
16441;DHT22;8330;-33.858;151.184;2022-11-18T06:45:31;28.80;70.30
16441;DHT22;8330;-33.858;151.184;2022-11-18T06:48:02;29.10;70.40
16441;DHT22;8330;-33.858;151.184;2022-11-18T06:50:31;29.50;68.40
16441;DHT22;8330;-33.858;151.184;2022-11-18T06:53:04;29.50;67.20
16441;DHT22;8330;-33.858;151.184;2022-11-18T06:55:36;29.60;66.10
16441;DHT22;8330;-33.858;151.184;2022-11-18T06:58:06;29.50;65.90
16441;DHT22;8330;-33.858;151.184;2022-11-18T07:00:37;29.60;66.10
16441;DHT22;8330;-33.858;151.184;2022-11-18T07:03:08;29.30;67.70
16441;DHT22;8330;-33.858;151.184;2022-11-18T07:05:39;29.40;65.80
16441;DHT22;8330;-33.858;151.184;2022-11-18T07:08:12;29.40;65.70
16441;DHT22;8330;-33.858;151.184;2022-11-18T07:10:52;29.40;65.20
16441;DHT22;8330;-33.858;151.184;2022-11-18T07:13:23;28.70;65.90
16441;DHT22;8330;-33.858;151.184;2022-11-18T07:15:54;28.70;67.40
16441;DHT22;8330;-33.858;151.184;2022-11-18T07:18:24;28.50;67.80
16441;DHT22;8330;-33.858;151.184;2022-11-18T07:20:55;29.10;65.90
16441;DHT22;8330;-33.858;151.184;2022-11-18T07:23:29;28.80;66.60
16441;DHT22;8330;-33.858;151.184;2022-11-18T07:26:00;28.90;67.20
16441;DHT22;8330;-33.858;151.184;2022-11-18T07:28:31;29.00;65.50
16441;DHT22;8330;-33.858;151.184;2022-11-18T07:31:03;28.90;66.80
16441;DHT22;8330;-33.858;151.184;2022-11-18T07:33:35;29.00;65.70
16441;DHT22;8330;-33.858;151.184;2022-11-18T07:36:07;29.20;64.30
16441;DHT22;8330;-33.858;151.184;2022-11-18T07:38:40;28.90;65.80
16441;DHT22;8330;-33.858;151.184;2022-11-18T07:41:12;28.60;65.40
16441;DHT22;8330;-33.858;151.184;2022-11-18T07:43:45;28.30;65.30
16441;DHT22;8330;-33.858;151.184;2022-11-18T07:46:18;28.00;67.50
16441;DHT22;8330;-33.858;151.184;2022-11-18T07:48:50;27.40;68.20
16441;DHT22;8330;-33.858;151.184;2022-11-18T07:51:22;26.90;72.30
16441;DHT22;8330;-33.858;151.184;2022-11-18T07:53:55;26.30;73.50
16441;DHT22;8330;-33.858;151.184;2022-11-18T07:56:27;25.80;75.70
16441;DHT22;8330;-33.858;151.184;2022-11-18T07:58:58;25.30;77.30
16441;DHT22;8330;-33.858;151.184;2022-11-18T08:01:29;24.90;81.00
16441;DHT22;8330;-33.858;151.184;2022-11-18T08:04:06;24.40;85.70
16441;DHT22;8330;-33.858;151.184;2022-11-18T08:06:38;24.10;89.20
16441;DHT22;8330;-33.858;151.184;2022-11-18T08:09:11;23.60;92.20
16441;DHT22;8330;-33.858;151.184;2022-11-18T08:11:42;23.40;95.30
16441;DHT22;8330;-33.858;151.184;2022-11-18T08:14:13;23.30;97.70
16441;DHT22;8330;-33.858;151.184;2022-11-18T08:16:45;23.10;98.70
16441;DHT22;8330;-33.858;151.184;2022-11-18T08:19:15;23.00;99.30
16441;DHT22;8330;-33.858;151.184;2022-11-18T08:21:46;22.70;99.90
16441;DHT22;8330;-33.858;151.184;2022-11-18T08:24:20;22.60;99.90
16441;DHT22;8330;-33.858;151.184;2022-11-18T08:26:51;22.30;99.90
16441;DHT22;8330;-33.858;151.184;2022-11-18T08:29:22;22.20;99.90
16441;DHT22;8330;-33.858;151.184;2022-11-18T08:31:52;22.00;99.90
16441;DHT22;8330;-33.858;151.184;2022-11-18T08:34:23;21.90;99.90
16441;DHT22;8330;-33.858;151.184;2022-11-18T08:36:59;21.80;99.90
16441;DHT22;8330;-33.858;151.184;2022-11-18T08:39:51;21.60;99.90
16441;DHT22;8330;-33.858;151.184;2022-11-18T08:42:24;21.50;99.90
16441;DHT22;8330;-33.858;151.184;2022-11-18T08:44:56;21.50;99.90
16441;DHT22;8330;-33.858;151.184;2022-11-18T08:47:27;21.40;99.90
16441;DHT22;8330;-33.858;151.184;2022-11-18T08:49:58;21.40;99.90
16441;DHT22;8330;-33.858;151.184;2022-11-18T08:52:52;21.30;99.90
16441;DHT22;8330;-33.858;151.184;2022-11-18T08:55:25;21.40;99.90
16441;DHT22;8330;-33.858;151.184;2022-11-18T08:57:56;21.30;99.90
16441;DHT22;8330;-33.858;151.184;2022-11-18T09:00:27;21.30;99.90
16441;DHT22;8330;-33.858;151.184;2022-11-18T09:02:57;21.20;99.90
16441;DHT22;8330;-33.858;151.184;2022-11-18T09:05:29;21.10;99.90
16441;DHT22;8330;-33.858;151.184;2022-11-18T09:08:03;21.00;99.90
16441;DHT22;8330;-33.858;151.184;2022-11-18T09:10:48;20.90;99.90
16441;DHT22;8330;-33.858;151.184;2022-11-18T09:13:32;20.90;99.90
16441;DHT22;8330;-33.858;151.184;2022-11-18T09:16:09;20.90;99.90
16441;DHT22;8330;-33.858;151.184;2022-11-18T09:18:47;20.90;99.90
16441;DHT22;8330;-33.858;151.184;2022-11-18T09:21:24;20.90;99.90
16441;DHT22;8330;-33.858;151.184;2022-11-18T09:24:06;20.90;99.90
16441;DHT22;8330;-33.858;151.184;2022-11-18T09:26:52;20.90;99.90
16441;DHT22;8330;-33.858;151.184;2022-11-18T09:29:31;20.70;99.90
16441;DHT22;8330;-33.858;151.184;2022-11-18T09:32:16;20.70;99.90
16441;DHT22;8330;-33.858;151.184;2022-11-18T09:35:04;20.70;99.90
16441;DHT22;8330;-33.858;151.184;2022-11-18T09:37:42;20.70;99.90
16441;DHT22;8330;-33.858;151.184;2022-11-18T09:40:54;20.60;99.90
16441;DHT22;8330;-33.858;151.184;2022-11-18T09:43:43;20.60;99.90
16441;DHT22;8330;-33.858;151.184;2022-11-18T09:46:33;20.60;99.90
16441;DHT22;8330;-33.858;151.184;2022-11-18T09:49:13;20.50;99.90
16441;DHT22;8330;-33.858;151.184;2022-11-18T09:51:48;20.50;99.90
16441;DHT22;8330;-33.858;151.184;2022-11-18T09:54:22;20.50;99.90
16441;DHT22;8330;-33.858;151.184;2022-11-18T09:57:01;20.50;99.90
16441;DHT22;8330;-33.858;151.184;2022-11-18T09:59:35;20.50;99.90
16441;DHT22;8330;-33.858;151.184;2022-11-18T10:02:36;20.50;99.90
16441;DHT22;8330;-33.858;151.184;2022-11-18T10:05:18;20.50;99.90
16441;DHT22;8330;-33.858;151.184;2022-11-18T10:08:16;20.40;99.90
16441;DHT22;8330;-33.858;151.184;2022-11-18T10:10:59;20.30;99.90
16441;DHT22;8330;-33.858;151.184;2022-11-18T10:13:49;20.30;99.90
16441;DHT22;8330;-33.858;151.184;2022-11-18T10:16:42;20.30;99.90
16441;DHT22;8330;-33.858;151.184;2022-11-18T10:19:29;20.30;99.90
16441;DHT22;8330;-33.858;151.184;2022-11-18T10:22:18;20.20;99.90
16441;DHT22;8330;-33.858;151.184;2022-11-18T10:24:55;20.20;99.90
16441;DHT22;8330;-33.858;151.184;2022-11-18T10:27:36;20.30;99.90
16441;DHT22;8330;-33.858;151.184;2022-11-18T10:30:12;20.20;99.90
16441;DHT22;8330;-33.858;151.184;2022-11-18T10:33:01;20.20;99.90
16441;DHT22;8330;-33.858;151.184;2022-11-18T10:35:36;20.20;99.90
16441;DHT22;8330;-33.858;151.184;2022-11-18T10:38:16;20.20;99.90
16441;DHT22;8330;-33.858;151.184;2022-11-18T10:40:56;20.20;99.90
16441;DHT22;8330;-33.858;151.184;2022-11-18T10:43:45;20.10;99.90
16441;DHT22;8330;-33.858;151.184;2022-11-18T10:46:22;20.20;99.90
16441;DHT22;8330;-33.858;151.184;2022-11-18T10:49:17;20.20;99.90
16441;DHT22;8330;-33.858;151.184;2022-11-18T10:52:03;20.10;99.90
16441;DHT22;8330;-33.858;151.184;2022-11-18T10:54:35;20.10;99.90
16441;DHT22;8330;-33.858;151.184;2022-11-18T10:57:11;20.00;99.90
16441;DHT22;8330;-33.858;151.184;2022-11-18T10:59:48;20.00;99.90
16441;DHT22;8330;-33.858;151.184;2022-11-18T11:02:22;20.00;99.90
16441;DHT22;8330;-33.858;151.184;2022-11-18T11:05:11;20.00;99.90
16441;DHT22;8330;-33.858;151.184;2022-11-18T11:07:45;20.00;99.90
16441;DHT22;8330;-33.858;151.184;2022-11-18T11:10:31;20.00;99.90
16441;DHT22;8330;-33.858;151.184;2022-11-18T11:13:08;20.00;99.90
16441;DHT22;8330;-33.858;151.184;2022-11-18T11:15:41;19.90;99.90
16441;DHT22;8330;-33.858;151.184;2022-11-18T11:18:15;19.80;99.90
16441;DHT22;8330;-33.858;151.184;2022-11-18T11:21:10;19.80;99.90
16441;DHT22;8330;-33.858;151.184;2022-11-18T11:23:41;19.80;99.90
16441;DHT22;8330;-33.858;151.184;2022-11-18T11:26:15;19.80;99.90
16441;DHT22;8330;-33.858;151.184;2022-11-18T11:28:52;19.80;99.90
16441;DHT22;8330;-33.858;151.184;2022-11-18T11:31:32;19.80;99.90
16441;DHT22;8330;-33.858;151.184;2022-11-18T11:34:09;19.80;99.90
16441;DHT22;8330;-33.858;151.184;2022-11-18T11:36:46;19.80;99.90
16441;DHT22;8330;-33.858;151.184;2022-11-18T11:39:43;19.80;99.90
16441;DHT22;8330;-33.858;151.184;2022-11-18T11:42:23;19.80;99.90
16441;DHT22;8330;-33.858;151.184;2022-11-18T11:45:06;19.80;99.90
16441;DHT22;8330;-33.858;151.184;2022-11-18T11:47:52;19.80;99.90
16441;DHT22;8330;-33.858;151.184;2022-11-18T11:50:32;19.80;99.90
16441;DHT22;8330;-33.858;151.184;2022-11-18T11:53:35;19.80;99.90
16441;DHT22;8330;-33.858;151.184;2022-11-18T11:56:14;19.80;99.90
16441;DHT22;8330;-33.858;151.184;2022-11-18T11:59:09;19.80;99.90
16441;DHT22;8330;-33.858;151.184;2022-11-18T12:01:55;19.70;99.90
16441;DHT22;8330;-33.858;151.184;2022-11-18T12:04:44;19.70;99.90
16441;DHT22;8330;-33.858;151.184;2022-11-18T12:07:18;19.70;99.90
16441;DHT22;8330;-33.858;151.184;2022-11-18T12:10:15;19.60;99.90
16441;DHT22;8330;-33.858;151.184;2022-11-18T12:13:02;19.60;99.90
16441;DHT22;8330;-33.858;151.184;2022-11-18T12:15:45;19.50;99.90
16441;DHT22;8330;-33.858;151.184;2022-11-18T12:18:28;19.50;99.90
16441;DHT22;8330;-33.858;151.184;2022-11-18T12:21:01;19.50;99.90
16441;DHT22;8330;-33.858;151.184;2022-11-18T12:23:32;19.50;99.90
16441;DHT22;8330;-33.858;151.184;2022-11-18T12:26:08;19.40;99.90
16441;DHT22;8330;-33.858;151.184;2022-11-18T12:28:41;19.30;99.90
16441;DHT22;8330;-33.858;151.184;2022-11-18T12:31:31;19.30;99.90
16441;DHT22;8330;-33.858;151.184;2022-11-18T12:34:04;19.30;99.90
16441;DHT22;8330;-33.858;151.184;2022-11-18T12:36:37;19.40;99.90
16441;DHT22;8330;-33.858;151.184;2022-11-18T12:42:40;19.30;99.90
16441;DHT22;8330;-33.858;151.184;2022-11-18T12:45:51;19.30;99.90
16441;DHT22;8330;-33.858;151.184;2022-11-18T12:48:34;19.30;99.90
16441;DHT22;8330;-33.858;151.184;2022-11-18T12:54:28;19.20;99.90
16441;DHT22;8330;-33.858;151.184;2022-11-18T12:57:02;19.20;99.90
16441;DHT22;8330;-33.858;151.184;2022-11-18T12:59:37;19.30;99.90
16441;DHT22;8330;-33.858;151.184;2022-11-18T13:02:18;19.30;99.90
16441;DHT22;8330;-33.858;151.184;2022-11-18T13:05:08;19.30;99.90
16441;DHT22;8330;-33.858;151.184;2022-11-18T13:07:44;19.20;99.90
16441;DHT22;8330;-33.858;151.184;2022-11-18T13:10:34;19.20;99.90
16441;DHT22;8330;-33.858;151.184;2022-11-18T13:13:05;19.10;99.90
16441;DHT22;8330;-33.858;151.184;2022-11-18T13:15:45;19.10;99.90
16441;DHT22;8330;-33.858;151.184;2022-11-18T13:18:33;19.00;99.90
16441;DHT22;8330;-33.858;151.184;2022-11-18T13:21:03;19.00;99.90
16441;DHT22;8330;-33.858;151.184;2022-11-18T13:23:47;19.00;99.90
16441;DHT22;8330;-33.858;151.184;2022-11-18T13:26:27;19.00;99.90
16441;DHT22;8330;-33.858;151.184;2022-11-18T13:32:04;19.00;99.90
16441;DHT22;8330;-33.858;151.184;2022-11-18T13:34:44;18.90;99.90
16441;DHT22;8330;-33.858;151.184;2022-11-18T13:37:18;18.90;99.90
16441;DHT22;8330;-33.858;151.184;2022-11-18T13:39:51;18.90;99.90
16441;DHT22;8330;-33.858;151.184;2022-11-18T13:42:22;18.90;99.90
16441;DHT22;8330;-33.858;151.184;2022-11-18T13:44:54;18.90;99.90
16441;DHT22;8330;-33.858;151.184;2022-11-18T13:47:35;18.90;99.90
16441;DHT22;8330;-33.858;151.184;2022-11-18T13:50:18;18.90;99.90
16441;DHT22;8330;-33.858;151.184;2022-11-18T13:52:59;18.80;99.90
16441;DHT22;8330;-33.858;151.184;2022-11-18T13:55:35;18.80;99.90
16441;DHT22;8330;-33.858;151.184;2022-11-18T13:58:19;18.80;99.90
16441;DHT22;8330;-33.858;151.184;2022-11-18T14:00:56;18.80;99.90
16441;DHT22;8330;-33.858;151.184;2022-11-18T14:03:32;18.80;99.90
16441;DHT22;8330;-33.858;151.184;2022-11-18T14:06:06;18.70;99.90
16441;DHT22;8330;-33.858;151.184;2022-11-18T14:08:38;18.70;99.90
16441;DHT22;8330;-33.858;151.184;2022-11-18T14:11:10;18.60;99.90
16441;DHT22;8330;-33.858;151.184;2022-11-18T14:13:50;18.60;99.90
16441;DHT22;8330;-33.858;151.184;2022-11-18T14:16:32;18.50;99.90
16441;DHT22;8330;-33.858;151.184;2022-11-18T14:19:05;18.50;99.90
16441;DHT22;8330;-33.858;151.184;2022-11-18T14:21:37;18.40;99.90
16441;DHT22;8330;-33.858;151.184;2022-11-18T14:24:14;18.40;99.90
16441;DHT22;8330;-33.858;151.184;2022-11-18T14:26:46;18.40;99.90
16441;DHT22;8330;-33.858;151.184;2022-11-18T14:29:18;18.40;99.90
16441;DHT22;8330;-33.858;151.184;2022-11-18T14:32:12;18.40;99.90
16441;DHT22;8330;-33.858;151.184;2022-11-18T14:34:45;18.40;99.90
16441;DHT22;8330;-33.858;151.184;2022-11-18T14:37:26;18.40;99.90
16441;DHT22;8330;-33.858;151.184;2022-11-18T14:39:57;18.40;99.90
16441;DHT22;8330;-33.858;151.184;2022-11-18T14:42:28;18.40;99.90
16441;DHT22;8330;-33.858;151.184;2022-11-18T14:44:59;18.40;99.90
16441;DHT22;8330;-33.858;151.184;2022-11-18T14:47:30;18.40;99.90
16441;DHT22;8330;-33.858;151.184;2022-11-18T14:50:04;18.30;99.90
16441;DHT22;8330;-33.858;151.184;2022-11-18T14:52:35;18.40;99.90
16441;DHT22;8330;-33.858;151.184;2022-11-18T14:55:06;18.30;99.90
16441;DHT22;8330;-33.858;151.184;2022-11-18T14:57:38;18.30;99.90
16441;DHT22;8330;-33.858;151.184;2022-11-18T15:00:13;18.30;99.90
16441;DHT22;8330;-33.858;151.184;2022-11-18T15:02:45;18.30;99.90
16441;DHT22;8330;-33.858;151.184;2022-11-18T15:05:17;18.30;99.90
16441;DHT22;8330;-33.858;151.184;2022-11-18T15:07:48;18.30;99.90
16441;DHT22;8330;-33.858;151.184;2022-11-18T15:10:20;18.30;99.90
16441;DHT22;8330;-33.858;151.184;2022-11-18T15:12:51;18.30;99.90
16441;DHT22;8330;-33.858;151.184;2022-11-18T15:15:22;18.20;99.90
16441;DHT22;8330;-33.858;151.184;2022-11-18T15:17:53;18.20;99.90
16441;DHT22;8330;-33.858;151.184;2022-11-18T15:20:26;18.20;99.90
16441;DHT22;8330;-33.858;151.184;2022-11-18T15:22:56;18.20;99.90
16441;DHT22;8330;-33.858;151.184;2022-11-18T15:25:27;18.20;99.90
16441;DHT22;8330;-33.858;151.184;2022-11-18T15:27:58;18.10;99.90
16441;DHT22;8330;-33.858;151.184;2022-11-18T15:30:29;18.10;99.90
16441;DHT22;8330;-33.858;151.184;2022-11-18T15:32:59;18.00;99.90
16441;DHT22;8330;-33.858;151.184;2022-11-18T15:35:32;18.00;99.90
16441;DHT22;8330;-33.858;151.184;2022-11-18T15:38:08;18.00;99.90
16441;DHT22;8330;-33.858;151.184;2022-11-18T15:40:39;18.00;99.90
16441;DHT22;8330;-33.858;151.184;2022-11-18T15:43:10;18.00;99.90
16441;DHT22;8330;-33.858;151.184;2022-11-18T15:45:41;18.00;99.90
16441;DHT22;8330;-33.858;151.184;2022-11-18T15:48:13;18.00;99.90
16441;DHT22;8330;-33.858;151.184;2022-11-18T15:50:46;18.00;99.90
16441;DHT22;8330;-33.858;151.184;2022-11-18T15:53:17;18.00;99.90
16441;DHT22;8330;-33.858;151.184;2022-11-18T15:55:49;17.90;99.90
16441;DHT22;8330;-33.858;151.184;2022-11-18T15:58:20;17.90;99.90
16441;DHT22;8330;-33.858;151.184;2022-11-18T16:00:52;17.80;99.90
16441;DHT22;8330;-33.858;151.184;2022-11-18T16:03:25;17.80;99.90
16441;DHT22;8330;-33.858;151.184;2022-11-18T16:05:58;17.80;99.90